sensor_id;sensor_type;location;lat;lon;timestamp;pressure;altitude;pressure_sealevel;temperature;humidity
50682;BME280;36779;52.168;20.878;2023-09-07T00:00:43;101462.44;;;15.01;59.93
50682;BME280;36779;52.168;20.878;2023-09-07T00:03:35;101464.08;;;15.08;59.98
50682;BME280;36779;52.168;20.878;2023-09-07T00:06:12;101464.86;;;15.12;60.08
50682;BME280;36779;52.168;20.878;2023-09-07T00:08:44;101467.25;;;15.15;60.25
50682;BME280;36779;52.168;20.878;2023-09-07T00:11:17;101465.91;;;15.15;60.16
50682;BME280;36779;52.168;20.878;2023-09-07T00:13:49;101463.45;;;15.15;60.05
50682;BME280;36779;52.168;20.878;2023-09-07T00:16:21;101462.24;;;15.11;59.97
50682;BME280;36779;52.168;20.878;2023-09-07T00:18:54;101463.65;;;14.96;59.53
50682;BME280;36779;52.168;20.878;2023-09-07T00:21:26;101458.39;;;14.80;59.52
50682;BME280;36779;52.168;20.878;2023-09-07T00:23:58;101458.77;;;14.74;59.59
50682;BME280;36779;52.168;20.878;2023-09-07T00:26:35;101458.45;;;14.68;59.81
50682;BME280;36779;52.168;20.878;2023-09-07T00:29:07;101456.57;;;14.64;59.71
50682;BME280;36779;52.168;20.878;2023-09-07T00:31:39;101461.55;;;14.63;60.13
50682;BME280;36779;52.168;20.878;2023-09-07T00:34:12;101459.84;;;14.60;59.79
50682;BME280;36779;52.168;20.878;2023-09-07T00:36:45;101464.39;;;14.59;59.80
50682;BME280;36779;52.168;20.878;2023-09-07T00:39:17;101466.17;;;14.49;59.73
50682;BME280;36779;52.168;20.878;2023-09-07T00:41:49;101463.23;;;14.38;59.75
50682;BME280;36779;52.168;20.878;2023-09-07T00:44:21;101460.23;;;14.27;59.93
50682;BME280;36779;52.168;20.878;2023-09-07T00:46:53;101461.16;;;14.18;59.74
50682;BME280;36779;52.168;20.878;2023-09-07T00:49:27;101460.09;;;14.10;60.04
50682;BME280;36779;52.168;20.878;2023-09-07T00:51:59;101462.35;;;14.08;60.15
50682;BME280;36779;52.168;20.878;2023-09-07T00:54:31;101466.35;;;14.06;59.91
50682;BME280;36779;52.168;20.878;2023-09-07T00:57:05;101466.16;;;14.08;60.45
50682;BME280;36779;52.168;20.878;2023-09-07T00:59:37;101467.45;;;14.04;60.20
50682;BME280;36779;52.168;20.878;2023-09-07T01:02:10;101468.04;;;13.97;60.16
50682;BME280;36779;52.168;20.878;2023-09-07T01:04:42;101463.08;;;14.00;60.62
50682;BME280;36779;52.168;20.878;2023-09-07T01:07:20;101463.11;;;14.06;60.54
50682;BME280;36779;52.168;20.878;2023-09-07T01:09:59;101454.96;;;14.07;60.64
50682;BME280;36779;52.168;20.878;2023-09-07T01:12:32;101455.05;;;14.03;60.70
50682;BME280;36779;52.168;20.878;2023-09-07T01:15:05;101455.64;;;13.98;60.47
50682;BME280;36779;52.168;20.878;2023-09-07T01:17:37;101455.39;;;13.95;60.81
50682;BME280;36779;52.168;20.878;2023-09-07T01:20:14;101455.48;;;13.92;60.47
50682;BME280;36779;52.168;20.878;2023-09-07T01:22:49;101455.14;;;13.88;60.40
50682;BME280;36779;52.168;20.878;2023-09-07T01:25:21;101455.37;;;13.84;60.45
50682;BME280;36779;52.168;20.878;2023-09-07T01:27:54;101459.24;;;13.79;60.47
50682;BME280;36779;52.168;20.878;2023-09-07T01:30:29;101459.41;;;13.75;60.69
50682;BME280;36779;52.168;20.878;2023-09-07T01:33:01;101458.38;;;13.71;60.43
50682;BME280;36779;52.168;20.878;2023-09-07T01:35:34;101461.05;;;13.64;60.77
50682;BME280;36779;52.168;20.878;2023-09-07T01:38:07;101458.31;;;13.61;60.72
50682;BME280;36779;52.168;20.878;2023-09-07T01:40:40;101458.94;;;13.60;60.89
50682;BME280;36779;52.168;20.878;2023-09-07T01:43:12;101455.15;;;13.64;61.00
50682;BME280;36779;52.168;20.878;2023-09-07T01:45:44;101455.52;;;13.62;61.02
50682;BME280;36779;52.168;20.878;2023-09-07T01:48:16;101461.90;;;13.57;61.05
50682;BME280;36779;52.168;20.878;2023-09-07T01:50:53;101461.58;;;13.55;60.97
50682;BME280;36779;52.168;20.878;2023-09-07T01:53:27;101458.19;;;13.53;61.06
50682;BME280;36779;52.168;20.878;2023-09-07T01:55:59;101462.45;;;13.52;61.09
50682;BME280;36779;52.168;20.878;2023-09-07T01:58:32;101464.19;;;13.47;61.04
50682;BME280;36779;52.168;20.878;2023-09-07T02:01:05;101464.88;;;13.42;60.94
50682;BME280;36779;52.168;20.878;2023-09-07T02:03:37;101465.35;;;13.41;61.26
50682;BME280;36779;52.168;20.878;2023-09-07T02:06:09;101464.91;;;13.44;61.13
50682;BME280;36779;52.168;20.878;2023-09-07T02:08:41;101468.63;;;13.44;61.31
50682;BME280;36779;52.168;20.878;2023-09-07T02:11:13;101464.98;;;13.45;61.41
50682;BME280;36779;52.168;20.878;2023-09-07T02:13:48;101466.41;;;13.48;61.58
50682;BME280;36779;52.168;20.878;2023-09-07T02:16:20;101470.16;;;13.45;61.39
50682;BME280;36779;52.168;20.878;2023-09-07T02:19:02;101466.83;;;13.40;61.49
50682;BME280;36779;52.168;20.878;2023-09-07T02:21:35;101467.70;;;13.39;61.49
50682;BME280;36779;52.168;20.878;2023-09-07T02:24:08;101466.73;;;13.41;61.76
50682;BME280;36779;52.168;20.878;2023-09-07T02:26:40;101463.94;;;13.44;61.54
50682;BME280;36779;52.168;20.878;2023-09-07T02:29:16;101465.76;;;13.46;61.76
50682;BME280;36779;52.168;20.878;2023-09-07T02:31:49;101464.44;;;13.57;62.08
50682;BME280;36779;52.168;20.878;2023-09-07T02:34:21;101467.98;;;13.68;61.87
50682;BME280;36779;52.168;20.878;2023-09-07T02:36:53;101469.51;;;13.68;61.78
50682;BME280;36779;52.168;20.878;2023-09-07T02:39:28;101469.59;;;13.64;61.70
50682;BME280;36779;52.168;20.878;2023-09-07T02:42:00;101469.86;;;13.69;61.90
50682;BME280;36779;52.168;20.878;2023-09-07T02:44:33;101469.34;;;13.70;61.88
50682;BME280;36779;52.168;20.878;2023-09-07T02:47:06;101469.13;;;13.65;61.74
50682;BME280;36779;52.168;20.878;2023-09-07T02:49:42;101472.77;;;13.63;62.05
50682;BME280;36779;52.168;20.878;2023-09-07T02:52:15;101476.36;;;13.61;61.62
50682;BME280;36779;52.168;20.878;2023-09-07T02:54:47;101480.99;;;13.54;61.88
50682;BME280;36779;52.168;20.878;2023-09-07T02:57:19;101482.56;;;13.54;62.05
50682;BME280;36779;52.168;20.878;2023-09-07T02:59:53;101480.89;;;13.58;61.92
50682;BME280;36779;52.168;20.878;2023-09-07T03:02:27;101477.96;;;13.64;62.00
50682;BME280;36779;52.168;20.878;2023-09-07T03:04:59;101475.70;;;13.68;62.04
50682;BME280;36779;52.168;20.878;2023-09-07T03:07:33;101476.98;;;13.63;62.14
50682;BME280;36779;52.168;20.878;2023-09-07T03:10:06;101478.50;;;13.55;61.96
50682;BME280;36779;52.168;20.878;2023-09-07T03:12:41;101482.17;;;13.48;61.88
50682;BME280;36779;52.168;20.878;2023-09-07T03:15:15;101483.40;;;13.45;62.19
50682;BME280;36779;52.168;20.878;2023-09-07T03:17:47;101482.45;;;13.48;62.20
50682;BME280;36779;52.168;20.878;2023-09-07T03:20:20;101483.74;;;13.55;62.33
50682;BME280;36779;52.168;20.878;2023-09-07T03:22:53;101481.73;;;13.59;62.28
50682;BME280;36779;52.168;20.878;2023-09-07T03:25:27;101483.63;;;13.61;62.38
50682;BME280;36779;52.168;20.878;2023-09-07T03:27:59;101481.30;;;13.59;62.26
50682;BME280;36779;52.168;20.878;2023-09-07T03:30:32;101483.31;;;13.51;62.25
50682;BME280;36779;52.168;20.878;2023-09-07T03:33:05;101487.96;;;13.39;62.07
50682;BME280;36779;52.168;20.878;2023-09-07T03:35:38;101489.73;;;13.27;61.92
50682;BME280;36779;52.168;20.878;2023-09-07T03:38:12;101488.12;;;13.13;61.92
50682;BME280;36779;52.168;20.878;2023-09-07T03:40:44;101491.02;;;13.03;62.15
50682;BME280;36779;52.168;20.878;2023-09-07T03:43:18;101486.15;;;12.95;62.19
50682;BME280;36779;52.168;20.878;2023-09-07T03:45:51;101485.46;;;12.90;62.26
50682;BME280;36779;52.168;20.878;2023-09-07T03:48:35;101484.59;;;12.87;62.23
50682;BME280;36779;52.168;20.878;2023-09-07T03:51:11;101487.89;;;12.82;62.25
50682;BME280;36779;52.168;20.878;2023-09-07T03:53:44;101496.54;;;12.78;61.99
50682;BME280;36779;52.168;20.878;2023-09-07T03:56:17;101497.17;;;12.75;62.28
50682;BME280;36779;52.168;20.878;2023-09-07T03:58:50;101489.39;;;12.85;62.70
50682;BME280;36779;52.168;20.878;2023-09-07T04:01:22;101491.09;;;12.97;62.80
50682;BME280;36779;52.168;20.878;2023-09-07T04:03:55;101491.09;;;13.06;62.75
50682;BME280;36779;52.168;20.878;2023-09-07T04:06:30;101489.17;;;13.06;62.73
50682;BME280;36779;52.168;20.878;2023-09-07T04:09:03;101490.63;;;13.02;62.49
50682;BME280;36779;52.168;20.878;2023-09-07T04:11:36;101488.60;;;13.04;62.78
50682;BME280;36779;52.168;20.878;2023-09-07T04:14:10;101492.88;;;13.13;63.05
50682;BME280;36779;52.168;20.878;2023-09-07T04:16:43;101491.10;;;13.15;62.78
50682;BME280;36779;52.168;20.878;2023-09-07T04:19:16;101493.91;;;13.08;62.78
50682;BME280;36779;52.168;20.878;2023-09-07T04:21:48;101494.73;;;13.02;62.56
50682;BME280;36779;52.168;20.878;2023-09-07T04:24:21;101495.55;;;12.97;62.72
50682;BME280;36779;52.168;20.878;2023-09-07T04:26:57;101494.36;;;12.96;62.75
50682;BME280;36779;52.168;20.878;2023-09-07T04:29:30;101500.86;;;13.08;63.15
50682;BME280;36779;52.168;20.878;2023-09-07T04:32:02;101497.64;;;13.14;62.77
50682;BME280;36779;52.168;20.878;2023-09-07T04:34:37;101497.46;;;13.10;62.87
50682;BME280;36779;52.168;20.878;2023-09-07T04:37:34;101497.27;;;13.12;62.79
50682;BME280;36779;52.168;20.878;2023-09-07T04:40:27;101498.73;;;13.11;62.73
50682;BME280;36779;52.168;20.878;2023-09-07T04:43:28;101499.66;;;13.13;63.02
50682;BME280;36779;52.168;20.878;2023-09-07T04:46:00;101503.64;;;13.18;62.86
50682;BME280;36779;52.168;20.878;2023-09-07T04:48:33;101507.68;;;13.24;63.21
50682;BME280;36779;52.168;20.878;2023-09-07T04:51:07;101506.40;;;13.37;63.34
50682;BME280;36779;52.168;20.878;2023-09-07T04:53:40;101507.63;;;13.52;63.57
50682;BME280;36779;52.168;20.878;2023-09-07T04:56:13;101510.90;;;13.65;63.62
50682;BME280;36779;52.168;20.878;2023-09-07T04:58:45;101511.52;;;13.75;63.58
50682;BME280;36779;52.168;20.878;2023-09-07T05:01:17;101518.49;;;13.85;63.66
50682;BME280;36779;52.168;20.878;2023-09-07T05:03:50;101518.87;;;14.01;63.59
50682;BME280;36779;52.168;20.878;2023-09-07T05:06:25;101523.39;;;14.15;63.71
50682;BME280;36779;52.168;20.878;2023-09-07T05:08:58;101524.83;;;14.25;63.82
50682;BME280;36779;52.168;20.878;2023-09-07T05:11:32;101527.31;;;14.28;63.63
50682;BME280;36779;52.168;20.878;2023-09-07T05:14:08;101529.21;;;14.26;63.23
50682;BME280;36779;52.168;20.878;2023-09-07T05:16:43;101530.77;;;14.33;63.57
50682;BME280;36779;52.168;20.878;2023-09-07T05:19:16;101527.50;;;14.51;63.48
50682;BME280;36779;52.168;20.878;2023-09-07T05:21:49;101529.29;;;14.73;63.72
50682;BME280;36779;52.168;20.878;2023-09-07T05:24:21;101531.32;;;14.93;63.47
50682;BME280;36779;52.168;20.878;2023-09-07T05:26:55;101532.93;;;15.08;63.27
50682;BME280;36779;52.168;20.878;2023-09-07T05:29:28;101529.36;;;15.15;63.38
50682;BME280;36779;52.168;20.878;2023-09-07T05:32:00;101526.62;;;15.22;63.19
50682;BME280;36779;52.168;20.878;2023-09-07T05:34:33;101527.04;;;15.28;63.38
50682;BME280;36779;52.168;20.878;2023-09-07T05:37:06;101530.34;;;15.34;63.21
50682;BME280;36779;52.168;20.878;2023-09-07T05:39:39;101531.95;;;15.36;63.18
50682;BME280;36779;52.168;20.878;2023-09-07T05:42:11;101531.52;;;15.37;63.08
50682;BME280;36779;52.168;20.878;2023-09-07T05:44:44;101531.66;;;15.37;63.32
50682;BME280;36779;52.168;20.878;2023-09-07T05:47:16;101537.80;;;15.38;63.14
50682;BME280;36779;52.168;20.878;2023-09-07T05:49:49;101541.43;;;15.39;63.28
50682;BME280;36779;52.168;20.878;2023-09-07T05:52:22;101544.83;;;15.43;63.13
50682;BME280;36779;52.168;20.878;2023-09-07T05:54:54;101545.17;;;15.46;63.34
50682;BME280;36779;52.168;20.878;2023-09-07T05:57:27;101549.57;;;15.48;63.25
50682;BME280;36779;52.168;20.878;2023-09-07T05:59:59;101552.11;;;15.52;63.64
50682;BME280;36779;52.168;20.878;2023-09-07T06:02:32;101550.48;;;15.63;63.56
50682;BME280;36779;52.168;20.878;2023-09-07T06:05:05;101553.73;;;15.80;63.65
50682;BME280;36779;52.168;20.878;2023-09-07T06:07:45;101553.45;;;15.92;63.70
50682;BME280;36779;52.168;20.878;2023-09-07T06:10:18;101553.84;;;16.03;63.67
50682;BME280;36779;52.168;20.878;2023-09-07T06:12:52;101552.59;;;16.13;63.60
50682;BME280;36779;52.168;20.878;2023-09-07T06:15:25;101556.17;;;16.22;63.70
50682;BME280;36779;52.168;20.878;2023-09-07T06:17:59;101563.70;;;16.38;63.68
50682;BME280;36779;52.168;20.878;2023-09-07T06:20:31;101563.46;;;16.60;64.13
50682;BME280;36779;52.168;20.878;2023-09-07T06:23:06;101564.96;;;16.82;64.01
50682;BME280;36779;52.168;20.878;2023-09-07T06:25:38;101563.95;;;16.95;63.99
50682;BME280;36779;52.168;20.878;2023-09-07T06:28:11;101565.67;;;17.09;63.84
50682;BME280;36779;52.168;20.878;2023-09-07T06:30:43;101568.45;;;17.25;63.88
50682;BME280;36779;52.168;20.878;2023-09-07T06:33:16;101567.48;;;17.46;64.03
50682;BME280;36779;52.168;20.878;2023-09-07T06:35:48;101566.38;;;17.92;64.72
50682;BME280;36779;52.168;20.878;2023-09-07T06:38:21;101565.09;;;18.67;65.38
50682;BME280;36779;52.168;20.878;2023-09-07T06:40:53;101567.75;;;19.67;65.89
50682;BME280;36779;52.168;20.878;2023-09-07T06:43:26;101564.39;;;20.38;65.34
50682;BME280;36779;52.168;20.878;2023-09-07T06:46:06;101566.39;;;20.75;64.69
50682;BME280;36779;52.168;20.878;2023-09-07T06:48:39;101566.73;;;20.94;64.30
50682;BME280;36779;52.168;20.878;2023-09-07T06:51:11;101571.46;;;21.20;64.20
50682;BME280;36779;52.168;20.878;2023-09-07T06:53:44;101569.89;;;21.43;63.89
50682;BME280;36779;52.168;20.878;2023-09-07T06:56:29;101567.10;;;21.78;63.76
50682;BME280;36779;52.168;20.878;2023-09-07T06:59:02;101565.52;;;22.02;63.31
50682;BME280;36779;52.168;20.878;2023-09-07T07:01:34;101565.70;;;22.11;62.83
50682;BME280;36779;52.168;20.878;2023-09-07T07:04:09;101568.73;;;22.11;62.55
50682;BME280;36779;52.168;20.878;2023-09-07T07:06:41;101567.06;;;22.09;62.24
50682;BME280;36779;52.168;20.878;2023-09-07T07:09:14;101564.49;;;21.97;61.89
50682;BME280;36779;52.168;20.878;2023-09-07T07:11:46;101568.41;;;21.95;62.08
50682;BME280;36779;52.168;20.878;2023-09-07T07:14:18;101571.83;;;21.93;61.89
50682;BME280;36779;52.168;20.878;2023-09-07T07:16:50;101572.38;;;21.89;61.85
50682;BME280;36779;52.168;20.878;2023-09-07T07:19:23;101574.71;;;21.87;61.79
50682;BME280;36779;52.168;20.878;2023-09-07T07:21:57;101572.20;;;21.82;61.61
50682;BME280;36779;52.168;20.878;2023-09-07T07:24:29;101578.94;;;21.74;61.60
50682;BME280;36779;52.168;20.878;2023-09-07T07:27:01;101575.77;;;21.78;61.73
50682;BME280;36779;52.168;20.878;2023-09-07T07:29:37;101580.52;;;21.80;61.50
50682;BME280;36779;52.168;20.878;2023-09-07T07:32:09;101581.39;;;21.77;61.51
50682;BME280;36779;52.168;20.878;2023-09-07T07:34:41;101579.75;;;21.78;61.49
50682;BME280;36779;52.168;20.878;2023-09-07T07:37:14;101581.55;;;21.82;61.52
50682;BME280;36779;52.168;20.878;2023-09-07T07:39:46;101582.94;;;21.91;61.52
50682;BME280;36779;52.168;20.878;2023-09-07T07:42:18;101581.65;;;21.99;61.37
50682;BME280;36779;52.168;20.878;2023-09-07T07:44:52;101583.52;;;22.01;61.30
50682;BME280;36779;52.168;20.878;2023-09-07T07:47:25;101587.09;;;22.09;61.35
50682;BME280;36779;52.168;20.878;2023-09-07T07:49:57;101585.92;;;22.18;61.28
50682;BME280;36779;52.168;20.878;2023-09-07T07:52:30;101587.81;;;22.29;61.35
50682;BME280;36779;52.168;20.878;2023-09-07T07:55:02;101592.48;;;22.40;61.22
50682;BME280;36779;52.168;20.878;2023-09-07T07:57:35;101587.53;;;22.50;61.12
50682;BME280;36779;52.168;20.878;2023-09-07T08:00:09;101593.10;;;22.62;61.05
50682;BME280;36779;52.168;20.878;2023-09-07T08:02:46;101596.27;;;22.80;61.10
50682;BME280;36779;52.168;20.878;2023-09-07T08:05:19;101593.60;;;22.95;60.95
50682;BME280;36779;52.168;20.878;2023-09-07T08:07:51;101594.60;;;23.11;60.93
50682;BME280;36779;52.168;20.878;2023-09-07T08:10:26;101592.77;;;23.28;60.85
50682;BME280;36779;52.168;20.878;2023-09-07T08:13:02;101590.91;;;23.46;60.70
50682;BME280;36779;52.168;20.878;2023-09-07T08:15:35;101592.48;;;23.57;60.65
50682;BME280;36779;52.168;20.878;2023-09-07T08:18:08;101593.35;;;23.69;60.52
50682;BME280;36779;52.168;20.878;2023-09-07T08:20:41;101589.59;;;23.90;60.79
50682;BME280;36779;52.168;20.878;2023-09-07T08:23:13;101588.13;;;24.35;60.95
50682;BME280;36779;52.168;20.878;2023-09-07T08:25:46;101586.78;;;24.87;60.95
50682;BME280;36779;52.168;20.878;2023-09-07T08:28:19;101588.53;;;25.36;60.78
50682;BME280;36779;52.168;20.878;2023-09-07T08:30:53;101588.55;;;25.76;60.25
50682;BME280;36779;52.168;20.878;2023-09-07T08:33:26;101583.54;;;26.09;59.86
50682;BME280;36779;52.168;20.878;2023-09-07T08:36:00;101583.89;;;26.49;59.89
50682;BME280;36779;52.168;20.878;2023-09-07T08:38:34;101585.98;;;26.84;59.68
50682;BME280;36779;52.168;20.878;2023-09-07T08:41:07;101589.30;;;27.16;59.25
50682;BME280;36779;52.168;20.878;2023-09-07T08:43:45;101588.27;;;27.46;59.06
50682;BME280;36779;52.168;20.878;2023-09-07T08:46:19;101588.96;;;27.82;58.72
50682;BME280;36779;52.168;20.878;2023-09-07T08:48:52;101588.41;;;28.21;58.52
50682;BME280;36779;52.168;20.878;2023-09-07T08:51:32;101588.42;;;28.54;58.08
50682;BME280;36779;52.168;20.878;2023-09-07T08:54:05;101587.42;;;28.87;57.79
50682;BME280;36779;52.168;20.878;2023-09-07T08:56:39;101588.41;;;29.11;57.30
50682;BME280;36779;52.168;20.878;2023-09-07T08:59:11;101587.45;;;29.28;56.88
50682;BME280;36779;52.168;20.878;2023-09-07T09:01:43;101590.34;;;29.47;56.88
50682;BME280;36779;52.168;20.878;2023-09-07T09:04:16;101587.79;;;29.71;56.67
50682;BME280;36779;52.168;20.878;2023-09-07T09:06:49;101582.55;;;29.83;56.16
50682;BME280;36779;52.168;20.878;2023-09-07T09:09:26;101586.07;;;29.90;55.90
50682;BME280;36779;52.168;20.878;2023-09-07T09:12:09;101586.33;;;30.09;56.06
50682;BME280;36779;52.168;20.878;2023-09-07T09:14:43;101587.39;;;30.31;55.76
50682;BME280;36779;52.168;20.878;2023-09-07T09:17:16;101585.94;;;30.28;55.07
50682;BME280;36779;52.168;20.878;2023-09-07T09:19:49;101582.55;;;30.03;54.56
50682;BME280;36779;52.168;20.878;2023-09-07T09:22:21;101582.86;;;29.94;54.76
50682;BME280;36779;52.168;20.878;2023-09-07T09:24:56;101580.71;;;29.94;54.59
50682;BME280;36779;52.168;20.878;2023-09-07T09:27:28;101581.55;;;30.10;54.84
50682;BME280;36779;52.168;20.878;2023-09-07T09:30:00;101579.19;;;30.21;54.46
50682;BME280;36779;52.168;20.878;2023-09-07T09:32:33;101580.95;;;30.21;54.20
50682;BME280;36779;52.168;20.878;2023-09-07T09:35:06;101582.35;;;30.27;53.99
50682;BME280;36779;52.168;20.878;2023-09-07T09:37:48;101577.88;;;30.41;54.11
50682;BME280;36779;52.168;20.878;2023-09-07T09:40:20;101580.38;;;30.55;53.79
50682;BME280;36779;52.168;20.878;2023-09-07T09:42:56;101574.43;;;30.55;53.50
50682;BME280;36779;52.168;20.878;2023-09-07T09:45:29;101578.14;;;30.70;53.50
50682;BME280;36779;52.168;20.878;2023-09-07T09:48:04;101575.29;;;30.77;53.03
50682;BME280;36779;52.168;20.878;2023-09-07T09:50:37;101575.30;;;30.75;52.84
50682;BME280;36779;52.168;20.878;2023-09-07T09:53:11;101571.88;;;30.80;52.79
50682;BME280;36779;52.168;20.878;2023-09-07T09:55:47;101572.48;;;30.94;52.62
50682;BME280;36779;52.168;20.878;2023-09-07T09:58:19;101573.11;;;30.96;52.28
50682;BME280;36779;52.168;20.878;2023-09-07T10:00:54;101571.48;;;31.04;52.43
50682;BME280;36779;52.168;20.878;2023-09-07T10:03:31;101571.55;;;31.12;51.99
50682;BME280;36779;52.168;20.878;2023-09-07T10:06:11;101569.67;;;31.08;51.59
50682;BME280;36779;52.168;20.878;2023-09-07T10:08:54;101567.13;;;31.05;51.45
50682;BME280;36779;52.168;20.878;2023-09-07T10:11:31;101568.86;;;31.09;51.46
50682;BME280;36779;52.168;20.878;2023-09-07T10:14:02;101567.88;;;31.23;51.41
50682;BME280;36779;52.168;20.878;2023-09-07T10:16:45;101568.22;;;31.22;50.98
50682;BME280;36779;52.168;20.878;2023-09-07T10:19:19;101571.73;;;31.19;50.77
50682;BME280;36779;52.168;20.878;2023-09-07T10:21:54;101571.05;;;31.07;50.64
50682;BME280;36779;52.168;20.878;2023-09-07T10:24:28;101572.08;;;30.90;50.20
50682;BME280;36779;52.168;20.878;2023-09-07T10:27:02;101573.34;;;30.66;49.95
50682;BME280;36779;52.168;20.878;2023-09-07T10:29:43;101574.39;;;30.38;49.81
50682;BME280;36779;52.168;20.878;2023-09-07T10:32:16;101576.95;;;30.11;49.87
50682;BME280;36779;52.168;20.878;2023-09-07T10:34:51;101575.35;;;30.03;50.30
50682;BME280;36779;52.168;20.878;2023-09-07T10:37:29;101574.69;;;30.09;50.18
50682;BME280;36779;52.168;20.878;2023-09-07T10:40:07;101571.98;;;30.17;50.31
50682;BME280;36779;52.168;20.878;2023-09-07T10:42:42;101572.89;;;30.25;50.11
50682;BME280;36779;52.168;20.878;2023-09-07T10:45:16;101570.02;;;30.32;50.18
50682;BME280;36779;52.168;20.878;2023-09-07T10:47:48;101563.70;;;30.34;49.76
50682;BME280;36779;52.168;20.878;2023-09-07T10:50:21;101564.43;;;30.28;49.69
50682;BME280;36779;52.168;20.878;2023-09-07T10:52:55;101568.80;;;30.42;49.97
50682;BME280;36779;52.168;20.878;2023-09-07T10:55:27;101566.50;;;30.66;50.07
50682;BME280;36779;52.168;20.878;2023-09-07T10:57:59;101563.98;;;30.86;49.80
50682;BME280;36779;52.168;20.878;2023-09-07T11:00:32;101563.55;;;30.90;49.52
50682;BME280;36779;52.168;20.878;2023-09-07T11:03:10;101564.34;;;30.96;49.41
50682;BME280;36779;52.168;20.878;2023-09-07T11:05:43;101561.14;;;30.93;48.95
50682;BME280;36779;52.168;20.878;2023-09-07T11:08:15;101559.44;;;30.96;49.25
50682;BME280;36779;52.168;20.878;2023-09-07T11:10:49;101556.49;;;31.06;48.86
50682;BME280;36779;52.168;20.878;2023-09-07T11:13:22;101553.52;;;31.04;48.84
50682;BME280;36779;52.168;20.878;2023-09-07T11:15:56;101557.98;;;31.23;48.99
50682;BME280;36779;52.168;20.878;2023-09-07T11:18:29;101557.16;;;31.24;48.54
50682;BME280;36779;52.168;20.878;2023-09-07T11:21:02;101556.00;;;31.03;48.05
50682;BME280;36779;52.168;20.878;2023-09-07T11:23:34;101553.67;;;30.74;47.88
50682;BME280;36779;52.168;20.878;2023-09-07T11:26:09;101552.13;;;30.41;47.63
50682;BME280;36779;52.168;20.878;2023-09-07T11:28:41;101551.66;;;30.05;47.58
50682;BME280;36779;52.168;20.878;2023-09-07T11:31:17;101552.09;;;29.70;47.43
50682;BME280;36779;52.168;20.878;2023-09-07T11:33:50;101551.59;;;29.40;47.51
50682;BME280;36779;52.168;20.878;2023-09-07T11:36:22;101549.94;;;29.23;47.72
50682;BME280;36779;52.168;20.878;2023-09-07T11:38:58;101549.05;;;29.13;47.83
50682;BME280;36779;52.168;20.878;2023-09-07T11:41:30;101550.94;;;29.14;48.14
50682;BME280;36779;52.168;20.878;2023-09-07T11:44:02;101548.79;;;29.19;48.22
50682;BME280;36779;52.168;20.878;2023-09-07T11:46:34;101549.85;;;29.31;48.43
50682;BME280;36779;52.168;20.878;2023-09-07T11:49:10;101551.89;;;29.44;48.36
50682;BME280;36779;52.168;20.878;2023-09-07T11:51:42;101544.35;;;29.53;48.34
50682;BME280;36779;52.168;20.878;2023-09-07T11:54:15;101543.30;;;29.58;48.16
50682;BME280;36779;52.168;20.878;2023-09-07T11:56:47;101540.85;;;29.64;48.09
50682;BME280;36779;52.168;20.878;2023-09-07T11:59:19;101541.73;;;29.60;47.89
50682;BME280;36779;52.168;20.878;2023-09-07T12:01:51;101541.11;;;29.62;47.97
50682;BME280;36779;52.168;20.878;2023-09-07T12:04:25;101539.98;;;29.66;47.79
50682;BME280;36779;52.168;20.878;2023-09-07T12:06:57;101541.73;;;29.63;47.69
50682;BME280;36779;52.168;20.878;2023-09-07T12:09:29;101542.69;;;29.66;47.70
50682;BME280;36779;52.168;20.878;2023-09-07T12:12:02;101539.52;;;29.63;47.57
50682;BME280;36779;52.168;20.878;2023-09-07T12:14:34;101538.71;;;29.59;47.37
50682;BME280;36779;52.168;20.878;2023-09-07T12:17:06;101538.70;;;29.42;47.06
50682;BME280;36779;52.168;20.878;2023-09-07T12:19:39;101538.84;;;29.18;46.93
50682;BME280;36779;52.168;20.878;2023-09-07T12:22:12;101539.33;;;28.95;46.88
50682;BME280;36779;52.168;20.878;2023-09-07T12:24:45;101533.91;;;28.69;46.76
50682;BME280;36779;52.168;20.878;2023-09-07T12:27:28;101536.35;;;28.46;46.82
50682;BME280;36779;52.168;20.878;2023-09-07T12:30:14;101535.46;;;28.18;46.95
50682;BME280;36779;52.168;20.878;2023-09-07T12:32:49;101533.85;;;27.96;46.81
50682;BME280;36779;52.168;20.878;2023-09-07T12:35:22;101530.82;;;27.78;46.84
50682;BME280;36779;52.168;20.878;2023-09-07T12:37:56;101529.24;;;27.59;47.05
50682;BME280;36779;52.168;20.878;2023-09-07T12:40:34;101530.94;;;27.40;47.06
50682;BME280;36779;52.168;20.878;2023-09-07T12:43:08;101527.52;;;27.28;47.20
50682;BME280;36779;52.168;20.878;2023-09-07T12:45:41;101527.42;;;27.21;47.27
50682;BME280;36779;52.168;20.878;2023-09-07T12:48:13;101522.67;;;27.19;47.58
50682;BME280;36779;52.168;20.878;2023-09-07T12:50:46;101523.08;;;27.26;47.65
50682;BME280;36779;52.168;20.878;2023-09-07T12:53:19;101524.31;;;27.28;47.61
50682;BME280;36779;52.168;20.878;2023-09-07T12:55:56;101516.97;;;27.33;47.85
50682;BME280;36779;52.168;20.878;2023-09-07T12:58:28;101515.34;;;27.38;47.59
50682;BME280;36779;52.168;20.878;2023-09-07T13:01:00;101512.38;;;27.35;47.64
50682;BME280;36779;52.168;20.878;2023-09-07T13:03:33;101508.43;;;27.43;47.80
50682;BME280;36779;52.168;20.878;2023-09-07T13:06:06;101502.84;;;27.50;47.62
50682;BME280;36779;52.168;20.878;2023-09-07T13:08:39;101502.42;;;27.54;47.60
50682;BME280;36779;52.168;20.878;2023-09-07T13:11:11;101495.19;;;27.57;47.53
50682;BME280;36779;52.168;20.878;2023-09-07T13:13:43;101487.23;;;27.63;47.59